Time;durP1;ratioP1;P1;durP2;ratioP2;P2;SDS_P1;SDS_P2;PMS_P1;PMS_P2;Temp;Humidity;BMP_temperature;BMP_pressure;BME280_temperature;BME280_humidity;BME280_pressure;Samples;Min_cycle;Max_cycle;Signal;HPM_P1;HPM_P2
2022/07/24 00:01:17;;;;;;;0.65;0.40;;;;;;;19.75;100.00;99491.14;1693011;81;21543;-55
2022/07/24 00:03:43;;;;;;;1.45;0.47;;;;;;;19.78;100.00;99487.28;1722846;81;21029;-55
2022/07/24 00:06:10;;;;;;;0.42;0.42;;;;;;;19.79;100.00;99492.61;1719301;81;21057;-56
2022/07/24 00:08:36;;;;;;;2.00;0.50;;;;;;;19.80;100.00;99495.70;1720851;81;21543;-56
2022/07/24 00:11:03;;;;;;;5.53;0.60;;;;;;;19.80;100.00;99494.34;1724021;81;20999;-56
2022/07/24 00:13:30;;;;;;;0.88;0.50;;;;;;;19.76;100.00;99493.37;1723504;81;22389;-56
2022/07/24 00:15:57;;;;;;;0.55;0.42;;;;;;;19.67;100.00;99490.97;1720432;81;22214;-55
2022/07/24 00:18:24;;;;;;;0.70;0.55;;;;;;;19.57;100.00;99488.69;1718108;81;21383;-55
2022/07/24 00:20:50;;;;;;;0.50;0.40;;;;;;;19.48;100.00;99495.84;1719483;81;21310;-56
2022/07/24 00:23:19;;;;;;;1.35;0.40;;;;;;;19.41;100.00;99497.35;1721018;81;21038;-56
2022/07/24 00:25:45;;;;;;;1.82;0.47;;;;;;;19.36;100.00;99495.55;1723234;81;21077;-56
2022/07/24 00:28:11;;;;;;;2.08;0.45;;;;;;;19.33;100.00;99490.34;1725590;81;21074;-56
2022/07/24 00:30:38;;;;;;;3.55;0.50;;;;;;;19.32;100.00;99496.80;1719890;82;21102;-55
2022/07/24 00:33:05;;;;;;;1.55;0.50;;;;;;;19.31;100.00;99493.70;1716800;82;21250;-56
2022/07/24 00:35:31;;;;;;;0.95;0.40;;;;;;;19.33;100.00;99492.20;1718612;81;21648;-56
2022/07/24 00:37:58;;;;;;;1.17;0.55;;;;;;;19.34;100.00;99485.75;1720092;81;21086;-55
2022/07/24 00:40:25;;;;;;;0.62;0.47;;;;;;;19.35;100.00;99488.36;1718560;81;21139;-56
2022/07/24 00:42:52;;;;;;;1.22;0.40;;;;;;;19.37;100.00;99484.13;1724236;81;21393;-55
2022/07/24 00:45:19;;;;;;;0.40;0.40;;;;;;;19.38;100.00;99480.41;1725207;81;21069;-57
2022/07/24 00:47:46;;;;;;;0.50;0.47;;;;;;;19.40;100.00;99483.34;1723940;81;21038;-55
2022/07/24 00:50:12;;;;;;;0.60;0.50;;;;;;;19.41;100.00;99479.61;1724153;81;21643;-56
2022/07/24 00:52:39;;;;;;;0.88;0.50;;;;;;;19.42;100.00;99484.57;1723256;81;21056;-56
2022/07/24 00:55:07;;;;;;;1.00;0.50;;;;;;;19.44;100.00;99486.67;1719748;82;21058;-56
2022/07/24 00:57:34;;;;;;;0.40;0.40;;;;;;;19.44;100.00;99484.81;1721096;81;21233;-55
2022/07/24 01:00:00;;;;;;;1.00;0.50;;;;;;;19.43;100.00;99484.94;1721577;81;20871;-56
2022/07/24 01:02:28;;;;;;;0.40;0.40;;;;;;;19.41;100.00;99492.39;1723774;81;20962;-56
2022/07/24 01:04:55;;;;;;;0.50;0.40;;;;;;;19.40;100.00;99494.25;1723525;81;20950;-55
2022/07/24 01:07:21;;;;;;;1.40;0.35;;;;;;;19.41;100.00;99494.62;1724261;81;20919;-55
2022/07/24 01:09:48;;;;;;;1.07;0.40;;;;;;;19.40;100.00;99492.02;1726547;81;21680;-55
2022/07/24 01:12:15;;;;;;;0.78;0.40;;;;;;;19.41;100.00;99494.62;1719936;81;20880;-55
2022/07/24 01:14:43;;;;;;;0.90;0.40;;;;;;;19.40;100.00;99492.89;1725387;81;20947;-55
2022/07/24 01:17:10;;;;;;;2.12;0.50;;;;;;;19.39;100.00;99495.78;1722437;81;21417;-55
2022/07/24 01:19:37;;;;;;;0.40;0.40;;;;;;;19.38;100.00;99495.41;1721098;81;20950;-56
2022/07/24 01:22:04;;;;;;;0.55;0.55;;;;;;;19.37;100.00;99494.55;1726258;81;21535;-55
2022/07/24 01:24:32;;;;;;;1.27;0.50;;;;;;;19.38;100.00;99499.51;1724096;81;20944;-55
2022/07/24 01:26:58;;;;;;;0.90;0.40;;;;;;;19.35;100.00;99492.45;1719747;81;21009;-55
2022/07/24 01:29:25;;;;;;;2.67;0.60;;;;;;;19.34;100.00;99485.25;1725460;81;20929;-56
2022/07/24 01:31:51;;;;;;;0.68;0.40;;;;;;;19.33;100.00;99486.75;1723947;81;21595;-56
2022/07/24 01:34:18;;;;;;;1.90;0.42;;;;;;;19.31;100.00;99486.88;1718264;81;21111;-56
2022/07/24 01:36:45;;;;;;;0.75;0.50;;;;;;;19.32;100.00;99493.20;1724126;81;21508;-56
2022/07/24 01:39:11;;;;;;;0.72;0.45;;;;;;;19.31;100.00;99498.33;1726430;81;20907;-56
2022/07/24 01:41:38;;;;;;;3.45;0.50;;;;;;;19.32;100.00;99488.61;1723144;81;21487;-56
2022/07/24 01:44:04;;;;;;;0.50;0.50;;;;;;;19.34;100.00;99487.98;1723124;81;21108;-56
2022/07/24 01:46:31;;;;;;;0.60;0.47;;;;;;;19.36;100.00;99490.58;1723501;81;21931;-55
2022/07/24 01:48:59;;;;;;;0.50;0.40;;;;;;;19.39;100.00;99494.42;1723242;81;21398;-57
2022/07/24 01:51:25;;;;;;;0.40;0.40;;;;;;;19.40;100.00;99493.39;1722277;81;22106;-55
2022/07/24 01:53:52;;;;;;;1.85;0.50;;;;;;;19.40;100.00;99492.89;1722285;81;21071;-56
2022/07/24 01:56:18;;;;;;;0.55;0.50;;;;;;;19.42;100.00;99491.39;1722700;81;21074;-55
2022/07/24 01:58:45;;;;;;;1.57;0.55;;;;;;;19.42;100.00;99486.80;1723679;81;21689;-56
2022/07/24 02:01:11;;;;;;;1.12;0.50;;;;;;;19.43;100.00;99483.58;1722361;81;21540;-54
2022/07/24 02:03:38;;;;;;;0.50;0.50;;;;;;;19.41;100.00;99475.52;1718722;81;21058;-54
2022/07/24 02:06:06;;;;;;;2.42;0.60;;;;;;;19.40;100.00;99477.02;1723666;82;21102;-54
2022/07/24 02:08:32;;;;;;;1.47;0.50;;;;;;;19.37;100.00;99482.27;1726696;81;22306;-56
2022/07/24 02:10:59;;;;;;;0.95;0.50;;;;;;;19.37;100.00;99480.03;1725541;81;21090;-53
2022/07/24 02:13:27;;;;;;;0.68;0.50;;;;;;;19.34;100.00;99481.16;1721278;81;21084;-54
2022/07/24 02:15:54;;;;;;;0.75;0.50;;;;;;;19.30;100.00;99482.45;1719157;81;22051;-56
2022/07/24 02:18:21;;;;;;;5.40;0.50;;;;;;;19.29;100.00;99486.17;1718808;82;21552;-54
2022/07/24 02:20:47;;;;;;;0.70;0.50;;;;;;;19.28;100.00;99480.34;1721659;82;21082;-54
2022/07/24 02:23:17;;;;;;;1.72;0.60;;;;;;;19.25;100.00;99484.20;1721323;81;21163;-54
2022/07/24 02:25:42;;;;;;;1.05;0.70;;;;;;;19.24;100.00;99477.51;1720646;81;21152;-55
2022/07/24 02:28:08;;;;;;;1.00;0.80;;;;;;;19.24;100.00;99485.70;1722556;81;21080;-55
2022/07/24 02:30:36;;;;;;;0.60;0.60;;;;;;;19.25;100.00;99487.43;1723502;81;21064;-54
2022/07/24 02:33:02;;;;;;;0.70;0.40;;;;;;;19.27;100.00;99488.17;1719096;81;21351;-55
2022/07/24 02:35:29;;;;;;;1.20;0.50;;;;;;;19.27;100.00;99484.07;1723494;81;21138;-53
2022/07/24 02:37:57;;;;;;;0.50;0.40;;;;;;;19.28;100.00;99485.80;1715515;81;21095;-54
2022/07/24 02:40:26;;;;;;;4.60;0.70;;;;;;;19.29;100.00;99490.27;1718741;81;21926;-56
2022/07/24 02:42:52;;;;;;;1.50;0.55;;;;;;;19.30;100.00;99496.09;1722383;81;21082;-55
2022/07/24 02:45:18;;;;;;;0.57;0.50;;;;;;;19.32;100.00;99497.30;1720406;82;21070;-55
2022/07/24 02:47:51;;;;;;;0.65;0.40;;;;;;;19.33;100.00;99500.39;1717829;82;21778;-55
2022/07/24 02:50:18;;;;;;;1.17;0.50;;;;;;;19.35;100.00;99500.63;1720912;81;21057;-54
2022/07/24 02:52:44;;;;;;;1.65;0.47;;;;;;;19.38;100.00;99493.55;1721264;81;21100;-56
2022/07/24 02:55:11;;;;;;;2.60;0.60;;;;;;;19.41;100.00;99490.53;1719791;81;21649;-56
2022/07/24 02:57:38;;;;;;;0.50;0.50;;;;;;;19.46;100.00;99484.18;1720061;80;21036;-54
2022/07/24 03:00:07;;;;;;;1.17;0.75;;;;;;;19.51;100.00;99482.42;1724216;81;21099;-53
2022/07/24 03:02:35;;;;;;;0.70;0.60;;;;;;;19.55;100.00;99479.30;1720259;81;21101;-54
2022/07/24 03:05:03;;;;;;;0.60;0.50;;;;;;;19.60;100.00;99477.01;1720206;81;21073;-56
2022/07/24 03:07:30;;;;;;;0.72;0.50;;;;;;;19.65;100.00;99478.81;1722281;81;21131;-55
2022/07/24 03:09:56;;;;;;;0.70;0.50;;;;;;;19.71;100.00;99472.45;1720715;81;21094;-54
2022/07/24 03:12:23;;;;;;;0.95;0.60;;;;;;;19.74;100.00;99469.42;1723970;81;22223;-53
2022/07/24 03:14:50;;;;;;;1.98;0.50;;;;;;;19.77;100.00;99471.89;1723697;81;21010;-54
2022/07/24 03:17:16;;;;;;;2.40;0.50;;;;;;;19.80;100.00;99469.77;1717364;81;21034;-54
2022/07/24 03:19:44;;;;;;;1.15;0.45;;;;;;;19.85;100.00;99473.42;1721303;81;21028;-53
2022/07/24 03:22:12;;;;;;;0.60;0.40;;;;;;;19.88;100.00;99466.33;1720124;81;21101;-53
2022/07/24 03:24:39;;;;;;;0.68;0.40;;;;;;;19.92;100.00;99467.76;1718362;81;21484;-54
2022/07/24 03:27:05;;;;;;;0.78;0.37;;;;;;;19.97;100.00;99460.03;1718450;82;21163;-54
2022/07/24 03:29:32;;;;;;;1.40;0.40;;;;;;;20.03;100.00;99456.72;1724356;81;21083;-53
2022/07/24 03:31:59;;;;;;;0.50;0.40;;;;;;;20.08;100.00;99454.42;1717422;81;21573;-54
2022/07/24 03:34:25;;;;;;;0.93;0.40;;;;;;;20.14;100.00;99453.88;1721208;81;21363;-53
2022/07/24 03:36:52;;;;;;;2.05;0.40;;;;;;;20.21;100.00;99450.06;1722444;81;21280;-53
2022/07/24 03:39:19;;;;;;;1.10;0.40;;;;;;;20.27;100.00;99457.69;1679298;84;21074;-54
2022/07/24 03:41:45;;;;;;;3.20;0.40;;;;;;;20.31;100.00;99452.31;1720801;81;21073;-53
2022/07/24 03:44:11;;;;;;;0.50;0.40;;;;;;;20.36;100.00;99464.56;1718994;81;21037;-54
2022/07/24 03:46:38;;;;;;;0.40;0.40;;;;;;;20.41;100.00;99459.19;1720418;81;21077;-54
2022/07/24 03:49:05;;;;;;;2.10;0.40;;;;;;;20.46;100.00;99465.08;1722766;82;22485;-54
2022/07/24 03:51:31;;;;;;;0.45;0.30;;;;;;;20.51;100.00;99468.23;1717526;81;21046;-54
2022/07/24 03:53:58;;;;;;;0.65;0.40;;;;;;;20.55;100.00;99458.75;1721363;81;21110;-54
2022/07/24 03:56:24;;;;;;;2.60;0.40;;;;;;;20.61;100.00;99460.89;1723869;81;21113;-55
2022/07/24 03:58:51;;;;;;;0.55;0.40;;;;;;;20.66;100.00;99459.48;1721033;81;21124;-52
2022/07/24 04:01:17;;;;;;;0.70;0.40;;;;;;;20.71;100.00;99458.52;1715097;82;21348;-54
2022/07/24 04:03:44;;;;;;;1.65;0.35;;;;;;;20.78;100.00;99455.56;1718792;81;21090;-53
2022/07/24 04:06:11;;;;;;;0.60;0.40;;;;;;;20.85;100.00;99464.04;1721950;81;21077;-54
2022/07/24 04:08:38;;;;;;;0.40;0.30;;;;;;;20.92;100.00;99466.58;1721563;81;21018;-53
2022/07/24 04:11:07;;;;;;;0.50;0.40;;;;;;;20.98;100.00;99464.61;1715803;81;21132;-55
2022/07/24 04:13:33;;;;;;;3.47;0.40;;;;;;;21.03;100.00;99456.81;1718921;81;21456;-54
2022/07/24 04:16:01;;;;;;;2.08;0.33;;;;;;;21.10;100.00;99462.05;1723946;81;21065;-57
2022/07/24 04:18:28;;;;;;;0.50;0.40;;;;;;;21.15;100.00;99458.88;1722147;81;21054;-55
2022/07/24 04:20:55;;;;;;;0.85;0.40;;;;;;;21.22;100.00;99460.55;1721845;81;21125;-55
2022/07/24 04:23:22;;;;;;;2.35;0.40;;;;;;;21.29;100.00;99457.57;1723056;81;21050;-53
2022/07/24 04:25:49;;;;;;;1.55;0.40;;;;;;;21.36;100.00;99460.92;1725114;81;21153;-53
2022/07/24 04:28:21;;;;;;;0.42;0.40;;;;;;;21.43;100.00;99457.11;1718747;81;21059;-57
2022/07/24 04:30:44;;;;;;;1.98;0.40;;;;;;;21.50;100.00;99453.62;1720245;82;21528;-56
2022/07/24 04:33:11;;;;;;;0.40;0.40;;;;;;;21.59;100.00;99450.48;1680208;83;20887;-56
2022/07/24 04:35:43;;;;;;;2.05;0.40;;;;;;;21.68;100.00;99442.73;1720749;81;20957;-57
2022/07/24 04:38:07;;;;;;;1.05;0.40;;;;;;;21.76;100.00;99442.83;1722908;81;21111;-57
2022/07/24 04:40:33;;;;;;;0.40;0.30;;;;;;;21.83;100.00;99439.83;1725192;82;20967;-56
2022/07/24 04:43:00;;;;;;;0.70;0.30;;;;;;;21.92;100.00;99440.78;1725183;82;21109;-57
2022/07/24 04:45:26;;;;;;;1.12;0.40;;;;;;;22.01;100.00;99432.19;1715129;81;21073;-57
2022/07/24 04:47:53;;;;;;;0.40;0.37;;;;;;;22.09;100.00;99435.88;1725698;81;20935;-57
2022/07/24 04:50:19;;;;;;;0.45;0.40;;;;;;;22.17;100.00;99435.10;1725567;81;21079;-58
2022/07/24 04:52:46;;;;;;;0.95;0.60;;;;;;;22.25;100.00;99429.70;1670601;84;21199;-56
2022/07/24 04:55:13;;;;;;;1.75;0.35;;;;;;;22.33;100.00;99433.89;1722623;81;21107;-56
2022/07/24 04:57:40;;;;;;;1.20;0.40;;;;;;;22.42;100.00;99429.35;1719374;81;21082;-57
2022/07/24 05:00:09;;;;;;;0.53;0.35;;;;;;;22.49;100.00;99431.30;1718935;81;21568;-58
2022/07/24 05:02:37;;;;;;;0.60;0.40;;;;;;;22.58;100.00;99424.02;1720945;81;21183;-57
2022/07/24 05:05:05;;;;;;;1.25;0.40;;;;;;;22.65;100.00;99421.84;1715849;81;21072;-56
2022/07/24 05:07:32;;;;;;;0.70;0.40;;;;;;;22.72;100.00;99421.20;1713117;81;21079;-56
2022/07/24 05:10:00;;;;;;;0.95;0.50;;;;;;;22.77;100.00;99421.13;1721865;81;21268;-56
2022/07/24 05:12:28;;;;;;;0.68;0.40;;;;;;;22.85;100.00;99421.19;1721572;81;21061;-55
2022/07/24 05:14:54;;;;;;;1.65;0.40;;;;;;;22.91;100.00;99412.81;1717431;81;21097;-56
2022/07/24 05:17:21;;;;;;;1.77;0.30;;;;;;;22.97;100.00;99409.42;1718580;81;21047;-55
2022/07/24 05:19:50;;;;;;;2.37;0.40;;;;;;;23.03;100.00;99409.31;1724167;81;21184;-54
2022/07/24 05:22:16;;;;;;;3.70;0.50;;;;;;;23.08;100.00;99411.91;1721730;81;21659;-56
2022/07/24 05:24:43;;;;;;;4.03;0.50;;;;;;;23.12;100.00;99409.20;1714111;82;20999;-54
2022/07/24 05:27:09;;;;;;;3.90;0.40;;;;;;;23.18;100.00;99409.92;1717614;81;21636;-55
2022/07/24 05:29:37;;;;;;;0.72;0.40;;;;;;;23.25;100.00;99412.87;1720418;81;21335;-54
2022/07/24 05:32:04;;;;;;;1.82;0.40;;;;;;;23.31;100.00;99416.33;1723230;81;21410;-54
2022/07/24 05:34:31;;;;;;;2.55;0.40;;;;;;;23.37;100.00;99413.81;1719471;81;21108;-56
2022/07/24 05:36:58;;;;;;;0.57;0.50;;;;;;;23.44;100.00;99416.77;1717780;81;21060;-55
2022/07/24 05:39:24;;;;;;;1.35;0.50;;;;;;;23.53;100.00;99421.30;1718682;81;21548;-54
2022/07/24 05:41:51;;;;;;;1.20;0.30;;;;;;;23.62;100.00;99420.83;1714511;82;21123;-54
2022/07/24 05:44:18;;;;;;;1.57;0.30;;;;;;;23.69;100.00;99417.77;1717177;81;21058;-56
2022/07/24 05:46:45;;;;;;;2.05;0.50;;;;;;;23.75;100.00;99419.33;1713085;81;21060;-56
2022/07/24 05:49:11;;;;;;;0.65;0.30;;;;;;;23.84;100.00;99423.48;1716747;81;21086;-56
2022/07/24 05:51:39;;;;;;;3.83;0.88;;;;;;;23.92;100.00;99429.00;1720846;81;21471;-58
2022/07/24 05:54:05;;;;;;;2.67;0.30;;;;;;;23.98;100.00;99422.35;1716927;81;20963;-54
2022/07/24 05:56:32;;;;;;;1.85;0.57;;;;;;;24.07;100.00;99419.11;1719690;81;21086;-53
2022/07/24 05:58:58;;;;;;;0.30;0.30;;;;;;;24.16;100.00;99419.99;1718907;81;21112;-55
2022/07/24 06:01:25;;;;;;;1.50;0.40;;;;;;;24.23;100.00;99423.30;1716695;81;21086;-55
2022/07/24 06:03:51;;;;;;;1.42;0.20;;;;;;;24.30;100.00;99424.86;1716873;81;21571;-55
2022/07/24 06:06:17;;;;;;;0.70;0.30;;;;;;;24.37;100.00;99425.38;1717291;81;21408;-54
2022/07/24 06:08:45;;;;;;;0.42;0.30;;;;;;;24.44;100.00;99429.17;1719422;81;20981;-56
2022/07/24 06:11:13;;;;;;;0.37;0.30;;;;;;;24.51;100.00;99426.59;1715821;81;21086;-54
2022/07/24 06:13:40;;;;;;;0.30;0.30;;;;;;;24.58;100.00;99423.53;1717332;81;21178;-55
2022/07/24 06:16:07;;;;;;;0.47;0.30;;;;;;;24.64;100.00;99417.33;1671568;83;21246;-55
2022/07/24 06:18:33;;;;;;;0.40;0.30;;;;;;;24.70;100.00;99417.14;1712858;81;21034;-55
2022/07/24 06:21:00;;;;;;;0.30;0.28;;;;;;;24.75;100.00;99412.00;1715841;81;21055;-55
2022/07/24 06:23:27;;;;;;;0.47;0.30;;;;;;;24.82;100.00;99415.78;1717747;81;21078;-55
2022/07/24 06:25:53;;;;;;;0.30;0.30;;;;;;;24.87;100.00;99415.59;1715170;81;21105;-56
2022/07/24 06:28:20;;;;;;;1.75;0.25;;;;;;;24.91;100.00;99413.88;1718848;81;21679;-57
2022/07/24 06:30:46;;;;;;;1.05;0.30;;;;;;;24.95;100.00;99413.89;1718937;81;20938;-55
2022/07/24 06:33:13;;;;;;;1.85;0.20;;;;;;;24.99;100.00;99411.16;1715717;81;21312;-54
2022/07/24 06:35:39;;;;;;;0.30;0.20;;;;;;;25.04;100.00;99408.72;1717743;81;21070;-56
2022/07/24 06:38:06;;;;;;;0.40;0.30;;;;;;;25.10;100.00;99410.77;1719681;81;21051;-55
2022/07/24 06:40:34;;;;;;;0.30;0.20;;;;;;;25.15;100.00;99405.61;1716974;81;21618;-55
2022/07/24 06:43:00;;;;;;;0.85;0.25;;;;;;;25.22;100.00;99412.14;1718712;81;21058;-56
2022/07/24 06:45:27;;;;;;;2.80;0.55;;;;;;;25.26;100.00;99408.84;1717586;81;21069;-57
2022/07/24 06:47:53;;;;;;;0.93;0.30;;;;;;;25.31;100.00;99406.09;1717676;81;21072;-55
2022/07/24 06:50:20;;;;;;;0.80;0.30;;;;;;;25.31;100.00;99401.44;1715349;81;21363;-56
2022/07/24 06:52:46;;;;;;;1.85;0.30;;;;;;;25.36;100.00;99395.39;1718036;81;21746;-57
2022/07/24 06:55:13;;;;;;;0.28;0.20;;;;;;;25.40;100.00;99396.25;1714960;81;21470;-55
2022/07/24 06:57:39;;;;;;;0.85;0.30;;;;;;;25.46;100.00;99390.02;1720429;81;21077;-55
2022/07/24 07:00:09;;;;;;;0.20;0.20;;;;;;;25.51;100.00;99384.86;1721060;81;21598;-55
2022/07/24 07:02:36;;;;;;;2.05;0.30;;;;;;;25.60;100.00;99384.34;1720923;81;20980;-56
2022/07/24 07:05:06;;;;;;;1.90;0.20;;;;;;;25.68;100.00;99382.06;1718403;81;21002;-54
2022/07/24 07:07:33;;;;;;;1.30;0.30;;;;;;;25.74;100.00;99377.20;1721876;81;21024;-56
2022/07/24 07:10:00;;;;;;;2.42;0.30;;;;;;;25.81;100.00;99373.55;1718999;81;21121;-55
2022/07/24 07:12:26;;;;;;;0.60;0.30;;;;;;;25.88;100.00;99369.02;1714950;81;22181;-57
2022/07/24 07:14:52;;;;;;;1.02;0.33;;;;;;;25.95;100.00;99369.14;1711343;81;21070;-57
2022/07/24 07:17:20;;;;;;;0.28;0.20;;;;;;;26.02;100.00;99371.55;1712968;81;21477;-57
2022/07/24 07:19:47;;;;;;;0.40;0.20;;;;;;;26.09;100.00;99371.67;1712798;81;21221;-56
2022/07/24 07:22:13;;;;;;;2.70;0.30;;;;;;;26.15;100.00;99364.89;1715158;81;21095;-57
2022/07/24 07:24:40;;;;;;;0.95;0.20;;;;;;;26.22;100.00;99360.87;1718125;81;21080;-56
2022/07/24 07:27:07;;;;;;;0.30;0.23;;;;;;;26.27;100.00;99351.58;1718640;81;21505;-54
2022/07/24 07:29:34;;;;;;;0.50;0.20;;;;;;;26.32;100.00;99349.97;1717947;81;22620;-56
2022/07/24 07:32:00;;;;;;;1.90;0.30;;;;;;;26.37;100.00;99350.27;1714590;81;21107;-55
2022/07/24 07:34:27;;;;;;;1.95;0.20;;;;;;;26.44;100.00;99349.03;1715597;81;21038;-56
2022/07/24 07:36:53;;;;;;;0.40;0.30;;;;;;;26.51;100.00;99342.24;1720349;81;21243;-56
2022/07/24 07:39:20;;;;;;;0.40;0.30;;;;;;;26.58;100.00;99347.34;1719111;81;21102;-55
2022/07/24 07:41:46;;;;;;;1.80;0.20;;;;;;;26.63;100.00;99346.25;1716900;81;21151;-55
2022/07/24 07:44:13;;;;;;;1.10;0.20;;;;;;;26.74;100.00;99341.16;1720669;81;21102;-55
2022/07/24 07:46:40;;;;;;;0.72;0.30;;;;;;;26.81;100.00;99339.88;1717888;81;21635;-56
2022/07/24 07:49:07;;;;;;;0.30;0.30;;;;;;;26.88;100.00;99342.77;1716367;81;21121;-55
2022/07/24 07:51:33;;;;;;;1.02;0.30;;;;;;;26.95;100.00;99351.52;1718868;81;21500;-56
2022/07/24 07:54:01;;;;;;;2.40;0.30;;;;;;;27.02;100.00;99342.81;1718342;81;21068;-55
2022/07/24 07:56:31;;;;;;;0.90;0.30;;;;;;;27.10;100.00;99349.62;1719417;81;20892;-56
2022/07/24 07:58:56;;;;;;;1.87;0.30;;;;;;;27.18;100.00;99348.67;1718174;81;21118;-56
2022/07/24 08:01:23;;;;;;;0.40;0.30;;;;;;;27.25;100.00;99343.24;1716723;81;21074;-55
2022/07/24 08:03:49;;;;;;;0.85;0.30;;;;;;;27.32;100.00;99345.05;1716838;81;22236;-56
2022/07/24 08:06:17;;;;;;;2.67;0.93;;;;;;;27.41;100.00;99348.57;1715568;81;21857;-56
2022/07/24 08:08:44;;;;;;;0.50;0.28;;;;;;;27.48;100.00;99343.47;1720015;81;21046;-55
2022/07/24 08:11:10;;;;;;;0.40;0.30;;;;;;;27.58;100.00;99338.20;1717487;81;21063;-56
2022/07/24 08:13:37;;;;;;;1.30;0.23;;;;;;;27.65;100.00;99328.94;1719474;81;21070;-56
2022/07/24 08:16:04;;;;;;;3.17;0.28;;;;;;;27.74;100.00;99332.45;1720922;82;21121;-53
2022/07/24 08:18:31;;;;;;;0.75;0.20;;;;;;;27.82;100.00;99332.33;1721254;81;21184;-55
2022/07/24 08:20:58;;;;;;;0.35;0.20;;;;;;;27.85;100.00;99331.44;1719917;81;21035;-56
2022/07/24 08:23:25;;;;;;;0.35;0.30;;;;;;;27.86;100.00;99330.38;1722173;81;21049;-56
2022/07/24 08:25:52;;;;;;;0.35;0.30;;;;;;;27.90;100.00;99325.33;1721822;81;21055;-56
2022/07/24 08:28:19;;;;;;;0.37;0.20;;;;;;;27.96;100.00;99323.16;1719404;82;21581;-55
2022/07/24 08:30:45;;;;;;;1.37;0.30;;;;;;;28.03;100.00;99321.84;1718667;82;21153;-55
2022/07/24 08:33:12;;;;;;;0.90;0.30;;;;;;;28.07;100.00;99325.39;1718292;82;21030;-55
2022/07/24 08:35:38;;;;;;;0.45;0.30;;;;;;;28.08;100.00;99325.72;1719273;82;22188;-56
2022/07/24 08:38:05;;;;;;;1.67;0.20;;;;;;;28.10;100.00;99321.38;1720803;82;21243;-56
2022/07/24 08:40:38;;;;;;;0.30;0.30;;;;;;;28.12;100.00;99322.05;1720431;81;21046;-57
2022/07/24 08:43:06;;;;;;;0.57;0.30;;;;;;;28.18;100.00;99317.14;1641293;85;21473;-56
2022/07/24 08:45:40;;;;;;;0.72;0.30;;;;;;;28.24;100.00;99308.07;1637940;85;21118;-55
2022/07/24 08:48:07;;;;;;;;;;;;;;;28.29;100.00;99315.23;1668002;84;21438;-55
2022/07/24 08:50:36;;;;;;;1.37;0.30;;;;;;;28.36;100.00;99309.23;1667359;85;20195;-55
2022/07/24 08:53:04;;;;;;;0.30;0.30;;;;;;;28.42;100.00;99310.34;1665547;84;21515;-54
2022/07/24 08:55:30;;;;;;;1.65;0.20;;;;;;;28.50;100.00;99304.66;1674330;83;21523;-57
2022/07/24 08:57:58;;;;;;;0.98;0.30;;;;;;;28.55;100.00;99307.70;1721437;81;21365;-58
2022/07/24 09:00:26;;;;;;;1.85;0.23;;;;;;;28.63;100.00;99309.47;1718890;82;21101;-55
2022/07/24 09:02:52;;;;;;;1.15;0.30;;;;;;;28.73;100.00;99305.83;1722161;82;21089;-57
2022/07/24 09:05:19;;;;;;;0.30;0.23;;;;;;;28.79;100.00;99311.45;1722633;81;21050;-56
2022/07/24 09:07:45;;;;;;;0.78;0.30;;;;;;;28.85;100.00;99304.23;1720876;82;21189;-55
2022/07/24 09:10:14;;;;;;;0.45;0.20;;;;;;;28.88;100.00;99302.45;1691705;82;21046;-54
2022/07/24 09:12:45;;;;;;;0.80;0.20;;;;;;;28.92;100.00;99297.68;1719680;82;21046;-55
2022/07/24 09:15:18;;;;;;;1.47;0.30;;;;;;;28.93;100.00;99306.33;1720252;81;21687;-54
2022/07/24 09:17:49;;;;;;;0.35;0.25;;;;;;;28.95;100.00;99304.22;1725960;81;21106;-55
2022/07/24 09:20:15;;;;;;;0.20;0.20;;;;;;;28.96;100.00;99303.69;1720076;81;21763;-57
2022/07/24 09:22:42;;;;;;;0.80;0.20;;;;;;;28.97;100.00;99296.56;1719392;81;21563;-56
2022/07/24 09:25:23;;;;;;;0.40;0.20;;;;;;;29.01;100.00;99314.17;1718425;81;21032;-55
2022/07/24 09:29:12;;;;;;;0.45;0.20;;;;;;;29.08;100.00;99302.08;1791177;78;22516;-59
2022/07/24 09:32:00;;;;;;;0.40;0.20;;;;;;;29.08;100.00;99303.46;1773224;79;21850;-58
2022/07/24 09:34:29;;;;;;;2.87;0.40;;;;;;;29.15;100.00;99304.35;1710872;81;21337;-58
2022/07/24 09:37:04;;;;;;;2.45;0.53;;;;;;;29.25;100.00;99301.22;1715149;82;21030;-57
2022/07/24 09:39:35;;;;;;;2.47;0.30;;;;;;;29.31;100.00;99302.63;1740147;81;21073;-58
2022/07/24 09:42:05;;;;;;;1.65;0.20;;;;;;;29.35;100.00;99308.11;1740545;81;20958;-56
2022/07/24 09:44:32;;;;;;;0.50;0.30;;;;;;;29.42;100.00;99312.86;1738221;81;21401;-56
2022/07/24 09:47:06;;;;;;;0.80;0.30;;;;;;;29.46;100.00;99311.37;1739376;81;21446;-58
2022/07/24 09:49:32;;;;;;;3.55;0.85;;;;;;;29.48;100.00;99314.27;1715534;81;21005;-55
2022/07/24 09:52:15;;;;;;;0.30;0.20;;;;;;;29.49;100.00;99310.97;1690635;82;21046;-57
2022/07/24 09:54:47;;;;;;;0.28;0.20;;;;;;;29.46;100.00;99308.59;1736490;80;21078;-56
2022/07/24 09:57:26;;;;;;;1.20;0.28;;;;;;;29.44;100.00;99305.16;1723195;81;21508;-58
2022/07/24 10:00:02;;;;;;;6.40;0.30;;;;;;;29.40;100.00;99308.04;1725929;81;21689;-56
2022/07/24 10:02:33;;;;;;;0.88;0.30;;;;;;;29.37;100.00;99305.66;1728933;81;21132;-56
2022/07/24 10:05:02;;;;;;;0.60;0.25;;;;;;;29.34;100.00;99305.53;1730243;81;21050;-56
2022/07/24 10:07:29;;;;;;;0.30;0.30;;;;;;;29.30;100.00;99300.92;1729621;81;21869;-56
2022/07/24 10:09:59;;;;;;;4.45;0.20;;;;;;;29.28;100.00;99304.42;1717196;81;20997;-56
2022/07/24 10:12:29;;;;;;;0.95;0.28;;;;;;;29.23;100.00;99298.64;1710418;82;21160;-57
2022/07/24 10:14:57;;;;;;;3.75;0.30;;;;;;;29.20;100.00;99305.11;1711962;82;21053;-56
2022/07/24 10:17:29;;;;;;;2.65;0.30;;;;;;;29.13;100.00;99306.47;1690749;83;21065;-57
2022/07/24 10:19:55;;;;;;;0.40;0.30;;;;;;;29.06;100.00;99295.88;1717386;82;20981;-57
2022/07/24 10:22:23;;;;;;;2.20;0.30;;;;;;;29.02;100.00;99297.85;1715408;81;21574;-56
2022/07/24 10:25:08;;;;;;;1.50;0.20;;;;;;;28.97;100.00;99298.48;1714635;82;21923;-55
2022/07/24 10:27:37;;;;;;;0.33;0.30;;;;;;;28.92;100.00;99294.91;1708871;82;21099;-56
2022/07/24 10:30:07;;;;;;;1.87;0.40;;;;;;;28.86;100.00;99294.88;1708984;82;20997;-56
2022/07/24 10:32:35;;;;;;;2.25;0.35;;;;;;;28.78;100.00;99291.73;1736972;80;21669;-56
2022/07/24 10:35:17;;;;;;;0.47;0.30;;;;;;;28.70;100.00;99286.84;1743083;80;21057;-57
2022/07/24 10:37:53;;;;;;;1.85;0.30;;;;;;;28.63;100.00;99291.47;1744382;80;21195;-56
2022/07/24 10:40:40;;;;;;;0.33;0.30;;;;;;;28.58;100.00;99290.70;1740613;80;21045;-57
2022/07/24 10:43:11;;;;;;;2.47;0.30;;;;;;;28.52;100.00;99288.72;1741473;80;21101;-54
2022/07/24 10:45:45;;;;;;;0.70;0.30;;;;;;;28.45;100.00;99284.52;1741339;80;21077;-54
2022/07/24 10:48:30;;;;;;;1.35;0.30;;;;;;;28.43;100.00;99283.84;1740565;80;21140;-57
2022/07/24 10:51:08;;;;;;;2.98;0.37;;;;;;;28.39;100.00;99279.78;1735519;80;21083;-56
2022/07/24 10:53:43;;;;;;;2.55;0.45;;;;;;;28.37;100.00;99270.81;1740669;80;21106;-57
2022/07/24 10:56:38;;;;;;;1.52;0.30;;;;;;;28.38;100.00;99273.05;1742182;80;21516;-57
2022/07/24 10:59:09;;;;;;;0.40;0.30;;;;;;;28.34;100.00;99271.20;1739985;80;21099;-56
2022/07/24 11:01:45;;;;;;;1.87;0.30;;;;;;;28.29;100.00;99265.42;1738589;80;21034;-57
2022/07/24 11:04:24;;;;;;;1.70;0.30;;;;;;;28.27;100.00;99255.59;1739964;80;22230;-56
2022/07/24 11:07:11;;;;;;;1.15;0.33;;;;;;;28.28;100.00;99263.70;1742043;80;21390;-57
2022/07/24 11:10:00;;;;;;;3.70;0.35;;;;;;;28.30;100.00;99249.15;1743136;80;21128;-57
2022/07/24 11:12:31;;;;;;;0.98;0.30;;;;;;;28.32;100.00;99249.81;1743746;80;21054;-55
2022/07/24 11:17:52;;;;;;;0.90;0.30;;;;;;;28.28;100.00;99272.01;1740297;80;21754;-56
2022/07/24 11:20:19;;;;;;;3.08;0.33;;;;;;;28.22;100.00;99265.89;1739546;80;21426;-56
2022/07/24 11:22:54;;;;;;;3.02;0.33;;;;;;;28.16;100.00;99261.98;1741694;80;21098;-57
2022/07/24 11:25:27;;;;;;;1.55;1.20;;;;;;;28.15;100.00;99259.41;1741234;80;21053;-56
2022/07/24 11:27:57;;;;;;;3.17;1.00;;;;;;;28.13;100.00;99254.59;1746306;79;21068;-56
2022/07/24 11:30:26;;;;;;;1.55;0.60;;;;;;;28.09;100.00;99255.51;1774147;79;23209;-59
2022/07/24 11:32:53;;;;;;;3.47;0.53;;;;;;;28.03;100.00;99254.92;1776724;78;21084;-54